Time;durP1;ratioP1;P1;durP2;ratioP2;P2;SDS_P1;SDS_P2;PMS_P1;PMS_P2;Temp;Humidity;BMP_temperature;BMP_pressure;BME280_temperature;BME280_humidity;BME280_pressure;Samples;Min_cycle;Max_cycle;Signal;HPM_P1;HPM_P2
2021/12/17 00:07:08;;;;;;;0.30;0.30;;;4.40;99.10;;;;;;5073308;28;20655;-68
2021/12/17 00:09:35;;;;;;;0.30;0.30;;;4.50;98.90;;;;;;5072797;28;20176;-68
2021/12/17 00:12:00;;;;;;;0.75;0.75;;;4.40;99.10;;;;;;5073477;28;20209;-68
2021/12/17 00:14:29;;;;;;;0.30;0.30;;;4.40;99.30;;;;;;5073601;28;20165;-68
2021/12/17 00:16:58;;;;;;;0.40;0.40;;;4.50;99.10;;;;;;5073661;28;20172;-68
2021/12/17 00:48:23;;;;;;;0.40;0.40;;;4.10;99.90;;;;;;5074387;28;20274;-68
2021/12/17 00:49:18;;;;;;;0.40;0.40;;;4.30;99.90;;;;;;5075911;28;20207;-68
2021/12/17 00:52:00;;;;;;;0.40;0.40;;;4.50;99.90;;;;;;5076588;28;20193;-68
2021/12/17 00:54:38;;;;;;;0.30;0.30;;;4.30;99.70;;;;;;5077222;28;20153;-67
2021/12/17 00:57:12;;;;;;;0.30;0.30;;;4.10;99.90;;;;;;5076704;28;20275;-67
2021/12/17 00:59:40;;;;;;;0.40;0.40;;;4.20;99.90;;;;;;5075905;28;20209;-68
2021/12/17 01:02:10;;;;;;;0.40;0.40;;;4.30;99.90;;;;;;5076307;28;20197;-68
2021/12/17 01:04:40;;;;;;;0.30;0.30;;;4.40;99.60;;;;;;5076785;28;20177;-68
2021/12/17 01:07:06;;;;;;;0.30;0.30;;;4.40;99.70;;;;;;5076775;28;20174;-68
2021/12/17 01:09:33;;;;;;;0.40;0.40;;;4.30;99.70;;;;;;5075737;28;20181;-68
2021/12/17 01:11:59;;;;;;;0.30;0.30;;;4.20;99.90;;;;;;5076250;28;20541;-68
2021/12/17 01:14:28;;;;;;;0.30;0.30;;;4.20;99.90;;;;;;5076367;28;20179;-67
2021/12/17 01:16:55;;;;;;;0.30;0.30;;;4.20;99.90;;;;;;5076372;28;20192;-68
2021/12/17 01:22:39;;;;;;;0.40;0.40;;;4.20;99.90;;;;;;5076532;28;20655;-68
2021/12/17 01:35:29;;;;;;;0.40;0.40;;;4.30;99.90;;;;;;5076141;28;20536;-68
2021/12/17 01:43:32;;;;;;;0.30;0.30;;;4.20;99.90;;;;;;5076130;28;20203;-67
2021/12/17 01:45:58;;;;;;;0.40;0.40;;;4.00;99.90;;;;;;5075873;28;20162;-68
2021/12/17 01:48:32;;;;;;;0.40;0.40;;;4.20;99.90;;;;;;5075431;28;20175;-68
2021/12/17 01:56:53;;;;;;;0.40;0.40;;;4.30;99.90;;;;;;5075735;28;20188;-68
2021/12/17 01:59:23;;;;;;;0.30;0.30;;;4.30;99.60;;;;;;5074865;28;20192;-68
2021/12/17 02:01:52;;;;;;;0.30;0.30;;;4.20;99.90;;;;;;5075370;28;20189;-67
2021/12/17 02:04:18;;;;;;;0.30;0.30;;;4.00;99.90;;;;;;5075417;28;20173;-68
2021/12/17 02:06:44;;;;;;;0.40;0.40;;;4.00;99.90;;;;;;5075477;28;20315;-68
2021/12/17 02:21:05;;;;;;;0.40;0.40;;;4.00;99.90;;;;;;5075047;28;20200;-67
2021/12/17 02:29:32;;;;;;;0.30;0.30;;;4.10;99.90;;;;;;5074455;28;20208;-68
2021/12/17 02:32:01;;;;;;;0.38;0.38;;;3.60;99.90;;;;;;5074675;28;20197;-68
2021/12/17 02:34:55;;;;;;;0.30;0.30;;;3.70;99.90;;;;;;5075029;28;20576;-68
2021/12/17 02:37:24;;;;;;;0.30;0.30;;;3.70;99.90;;;;;;5074689;28;20639;-67
2021/12/17 02:40:08;;;;;;;0.40;0.40;;;3.40;99.90;;;;;;5074190;28;20189;-66
2021/12/17 02:45:33;;;;;;;0.40;0.40;;;3.30;99.90;;;;;;5075035;28;20197;-67
2021/12/17 02:48:01;;;;;;;0.40;0.40;;;3.60;99.90;;;;;;5074071;28;20186;-67
2021/12/17 02:50:28;;;;;;;2.55;2.45;;;3.90;99.90;;;;;;5074561;28;20499;-67
2021/12/17 02:52:55;;;;;;;0.30;0.30;;;4.20;99.90;;;;;;5074535;28;20201;-67
2021/12/17 02:55:22;;;;;;;0.40;0.40;;;4.00;99.90;;;;;;5074742;28;20177;-66
2021/12/17 02:57:49;;;;;;;0.30;0.30;;;3.90;99.90;;;;;;5074306;28;20353;-67
2021/12/17 03:00:16;;;;;;;0.35;0.35;;;3.80;99.90;;;;;;5073479;28;20646;-67
2021/12/17 03:02:46;;;;;;;0.30;0.30;;;3.90;99.90;;;;;;5074216;28;20189;-67
2021/12/17 03:05:12;;;;;;;0.40;0.40;;;4.10;99.90;;;;;;5074354;28;20263;-67
2021/12/17 03:07:41;;;;;;;0.30;0.30;;;4.00;99.90;;;;;;5074376;28;20646;-67
2021/12/17 03:10:10;;;;;;;0.40;0.40;;;4.10;99.90;;;;;;5073579;28;20935;-67
2021/12/17 03:12:48;;;;;;;0.40;0.40;;;4.20;99.90;;;;;;5073887;28;20193;-67
2021/12/17 03:15:46;;;;;;;0.30;0.30;;;4.20;99.90;;;;;;5074288;28;20168;-67
2021/12/17 03:23:40;;;;;;;0.30;0.30;;;4.20;99.90;;;;;;5074047;28;20176;-67
2021/12/17 03:26:07;;;;;;;0.30;0.30;;;4.40;99.90;;;;;;5074059;28;20164;-67
2021/12/17 03:28:33;;;;;;;0.40;0.40;;;4.40;99.90;;;;;;5073511;28;20172;-67
2021/12/17 03:30:59;;;;;;;0.30;0.30;;;4.30;99.90;;;;;;5073996;28;20574;-67
2021/12/17 03:33:25;;;;;;;0.30;0.30;;;4.30;99.90;;;;;;5073583;28;20232;-67
2021/12/17 03:35:52;;;;;;;0.30;0.30;;;4.30;99.90;;;;;;5074058;28;20202;-67
2021/12/17 03:38:18;;;;;;;0.30;0.30;;;4.30;99.90;;;;;;5073389;28;20184;-67
2021/12/17 03:40:45;;;;;;;0.30;0.30;;;4.30;99.90;;;;;;5073938;28;20212;-67
2021/12/17 03:43:21;;;;;;;0.30;0.30;;;3.90;99.90;;;;;;5073961;28;20192;-67
2021/12/17 03:45:47;;;;;;;0.40;0.40;;;4.00;99.90;;;;;;5072387;28;20645;-67
2021/12/17 03:48:13;;;;;;;0.30;0.30;;;4.10;99.90;;;;;;5073235;28;20664;-67
2021/12/17 03:50:39;;;;;;;0.30;0.30;;;4.20;99.90;;;;;;5072342;28;20213;-67
2021/12/17 03:53:06;;;;;;;0.30;0.30;;;4.20;99.90;;;;;;5073702;28;20193;-67
2021/12/17 03:55:32;;;;;;;0.30;0.30;;;4.40;99.90;;;;;;5073452;28;20173;-67
2021/12/17 03:57:59;;;;;;;0.30;0.30;;;4.60;99.90;;;;;;5073498;28;20188;-67
2021/12/17 04:00:26;;;;;;;0.40;0.40;;;4.80;99.90;;;;;;5073153;28;20706;-67
2021/12/17 04:02:51;;;;;;;0.40;0.40;;;5.00;99.90;;;;;;5073442;28;20632;-67
2021/12/17 04:05:17;;;;;;;0.40;0.40;;;5.10;99.90;;;;;;5073520;28;20169;-67
2021/12/17 04:07:43;;;;;;;0.30;0.30;;;5.10;99.90;;;;;;5073626;28;20193;-67
2021/12/17 04:10:10;;;;;;;0.40;0.40;;;5.00;99.90;;;;;;5073266;28;20630;-67
2021/12/17 04:13:02;;;;;;;0.30;0.30;;;5.00;99.90;;;;;;5073254;28;20189;-67
2021/12/17 04:15:34;;;;;;;0.40;0.40;;;5.10;99.90;;;;;;5073159;28;20190;-67
2021/12/17 04:18:00;;;;;;;0.30;0.30;;;5.10;99.90;;;;;;5073004;28;20165;-67
2021/12/17 04:20:26;;;;;;;0.30;0.30;;;4.80;99.90;;;;;;5073123;28;20557;-67
2021/12/17 04:22:52;;;;;;;0.37;0.37;;;4.60;99.90;;;;;;5076945;28;20192;-67
2021/12/17 04:25:18;;;;;;;0.33;0.33;;;4.80;99.90;;;;;;5077038;28;20173;-67
2021/12/17 04:27:43;;;;;;;0.40;0.40;;;4.80;99.90;;;;;;5077200;28;20241;-67
2021/12/17 04:30:09;;;;;;;0.37;0.37;;;5.00;99.90;;;;;;5076774;28;20912;-67
2021/12/17 04:32:35;;;;;;;0.40;0.40;;;5.30;99.90;;;;;;5077480;28;20192;-67
2021/12/17 04:35:01;;;;;;;0.30;0.30;;;5.40;99.90;;;;;;5077276;28;20173;-67
2021/12/17 04:37:26;;;;;;;0.40;0.40;;;5.20;99.80;;;;;;5077402;28;20173;-67
2021/12/17 04:39:52;;;;;;;0.40;0.40;;;5.00;99.90;;;;;;5076560;28;20192;-67
2021/12/17 04:42:33;;;;;;;0.30;0.30;;;5.10;99.90;;;;;;5077418;28;20203;-67
2021/12/17 04:44:59;;;;;;;0.30;0.30;;;5.10;99.90;;;;;;5077828;28;20403;-67
2021/12/17 04:58:03;;;;;;;0.32;0.32;;;4.90;99.90;;;;;;5076402;28;20744;-67
2021/12/17 05:00:30;;;;;;;0.40;0.40;;;4.70;99.90;;;;;;5076212;28;20296;-67
2021/12/17 05:02:58;;;;;;;0.40;0.40;;;4.60;99.90;;;;;;5076619;28;20193;-67
2021/12/17 05:05:29;;;;;;;0.40;0.40;;;4.70;99.90;;;;;;5076433;28;20166;-67
2021/12/17 05:08:08;;;;;;;0.40;0.40;;;4.70;99.90;;;;;;5076198;28;20169;-67
2021/12/17 05:18:58;;;;;;;0.40;0.40;;;4.40;99.90;;;;;;5075949;28;20214;-67
2021/12/17 05:21:24;;;;;;;0.30;0.30;;;4.50;99.90;;;;;;5076544;28;20197;-67
2021/12/17 05:23:51;;;;;;;0.30;0.30;;;4.70;99.90;;;;;;5076196;28;20218;-67
2021/12/17 05:26:21;;;;;;;0.30;0.30;;;4.80;99.90;;;;;;5076302;28;20256;-67
2021/12/17 05:28:49;;;;;;;0.30;0.30;;;4.90;99.90;;;;;;5075509;28;20536;-67
2021/12/17 05:31:16;;;;;;;0.30;0.30;;;5.00;99.90;;;;;;5076016;28;20307;-67
2021/12/17 05:33:42;;;;;;;0.30;0.30;;;5.10;99.90;;;;;;5075794;28;20177;-67
2021/12/17 05:36:08;;;;;;;0.30;0.30;;;5.00;99.90;;;;;;5075673;28;20181;-67
2021/12/17 05:38:34;;;;;;;1.63;1.07;;;5.00;99.90;;;;;;5075408;28;20181;-67
2021/12/17 05:41:00;;;;;;;0.30;0.30;;;5.00;99.90;;;;;;5075953;28;20667;-67
2021/12/17 05:43:26;;;;;;;0.40;0.40;;;5.00;99.90;;;;;;5075988;28;20190;-67
2021/12/17 05:48:25;;;;;;;0.30;0.30;;;5.10;99.90;;;;;;5075544;28;20210;-67
2021/12/17 05:50:56;;;;;;;0.40;0.40;;;5.10;99.90;;;;;;5075498;28;20170;-67
2021/12/17 05:53:23;;;;;;;0.30;0.30;;;4.60;99.90;;;;;;5075679;28;20197;-67
2021/12/17 05:55:49;;;;;;;0.40;0.40;;;4.40;99.90;;;;;;5075717;28;20177;-67
2021/12/17 05:58:15;;;;;;;0.40;0.40;;;4.50;99.90;;;;;;5075296;28;20181;-67
2021/12/17 06:00:42;;;;;;;0.30;0.30;;;4.60;99.90;;;;;;5075208;28;20565;-67
2021/12/17 06:03:08;;;;;;;0.30;0.30;;;4.80;99.90;;;;;;5075264;28;20185;-67
2021/12/17 06:05:34;;;;;;;0.40;0.40;;;4.70;99.90;;;;;;5075263;28;20216;-67
2021/12/17 06:08:00;;;;;;;0.30;0.30;;;4.60;99.90;;;;;;5075035;28;20165;-71
2021/12/17 06:10:26;;;;;;;0.40;0.40;;;4.70;99.90;;;;;;5074543;28;20181;-66
2021/12/17 06:12:52;;;;;;;0.40;0.40;;;4.90;99.90;;;;;;5075463;28;20542;-70
2021/12/17 06:15:19;;;;;;;0.40;0.40;;;5.10;99.90;;;;;;5075521;28;20184;-67
2021/12/17 06:17:46;;;;;;;0.40;0.40;;;5.00;99.90;;;;;;5073099;28;20805;-67
2021/12/17 06:20:14;;;;;;;0.35;0.35;;;4.70;99.90;;;;;;5072964;28;20246;-67
2021/12/17 06:22:40;;;;;;;0.40;0.40;;;4.70;99.90;;;;;;5074653;28;20181;-67
2021/12/17 06:25:07;;;;;;;0.30;0.30;;;4.60;99.90;;;;;;5074565;28;20165;-67
2021/12/17 06:27:33;;;;;;;0.30;0.30;;;4.40;99.90;;;;;;5073913;28;20162;-67
2021/12/17 06:29:59;;;;;;;0.30;0.30;;;4.50;99.90;;;;;;5074934;28;20295;-70
2021/12/17 06:32:25;;;;;;;0.30;0.30;;;4.70;99.90;;;;;;5073513;28;20573;-67
2021/12/17 06:34:51;;;;;;;0.40;0.40;;;4.50;99.90;;;;;;5072774;28;20181;-67
2021/12/17 06:37:18;;;;;;;0.40;0.40;;;4.40;99.90;;;;;;5073087;28;20173;-67
2021/12/17 06:39:44;;;;;;;0.40;0.40;;;4.30;99.90;;;;;;5074343;28;20666;-67
2021/12/17 06:42:11;;;;;;;0.30;0.30;;;4.30;99.90;;;;;;5073743;28;20200;-67
2021/12/17 06:44:42;;;;;;;0.40;0.40;;;4.30;99.90;;;;;;5074047;28;20211;-67
2021/12/17 06:47:24;;;;;;;0.40;0.40;;;4.30;99.90;;;;;;5074392;28;20180;-67
2021/12/17 06:49:58;;;;;;;0.40;0.40;;;4.30;99.90;;;;;;5074259;28;20174;-67
2021/12/17 07:06:01;;;;;;;0.30;0.30;;;4.10;99.90;;;;;;5074952;28;20182;-67
2021/12/17 07:32:45;;;;;;;0.30;0.30;;;4.60;99.90;;;;;;5074286;28;20219;-68
2021/12/17 07:40:04;;;;;;;0.40;0.40;;;4.70;99.90;;;;;;5073469;28;20229;-70
2021/12/17 07:42:30;;;;;;;0.40;0.40;;;4.70;99.90;;;;;;5073811;28;20190;-69
2021/12/17 07:44:56;;;;;;;0.40;0.40;;;4.90;99.90;;;;;;5073929;28;20623;-70
2021/12/17 07:47:21;;;;;;;0.40;0.40;;;4.90;99.90;;;;;;5073583;28;20181;-68
2021/12/17 07:49:47;;;;;;;0.40;0.40;;;5.00;99.90;;;;;;5073070;28;20400;-69
2021/12/17 07:52:13;;;;;;;0.40;0.40;;;5.10;99.90;;;;;;5073568;28;20556;-69
2021/12/17 07:54:38;;;;;;;0.40;0.40;;;4.70;99.80;;;;;;5073583;28;20649;-68
2021/12/17 07:57:04;;;;;;;0.30;0.30;;;4.60;99.70;;;;;;5073682;28;20183;-71
2021/12/17 07:59:30;;;;;;;0.30;0.30;;;4.40;99.90;;;;;;5072647;28;20207;-73
2021/12/17 08:01:55;;;;;;;0.30;0.30;;;4.40;99.90;;;;;;5073398;28;20424;-68
2021/12/17 08:04:23;;;;;;;0.40;0.40;;;4.40;99.90;;;;;;5073813;28;20187;-68
2021/12/17 08:06:49;;;;;;;0.30;0.30;;;4.50;99.90;;;;;;5073408;28;20164;-67
2021/12/17 08:09:14;;;;;;;0.38;0.38;;;4.60;99.90;;;;;;5073100;28;20173;-67
2021/12/17 08:11:40;;;;;;;0.30;0.30;;;4.70;99.90;;;;;;5073431;28;20549;-67
2021/12/17 08:14:17;;;;;;;0.30;0.30;;;4.80;99.90;;;;;;5074007;28;20442;-68
2021/12/17 08:23:20;;;;;;;0.40;0.40;;;6.50;98.40;;;;;;5073221;28;20170;-66
2021/12/17 08:27:30;;;;;;;0.30;0.30;;;11.00;95.60;;;;;;5073259;28;20176;-69
2021/12/17 08:32:23;;;;;;;0.30;0.30;;;13.00;85.50;;;;;;5072887;28;20189;-70
2021/12/17 08:34:49;;;;;;;0.30;0.30;;;13.30;77.00;;;;;;5073538;28;20604;-70
2021/12/17 08:37:14;;;;;;;0.30;0.30;;;13.00;75.90;;;;;;5073040;28;20166;-70
2021/12/17 08:39:40;;;;;;;0.37;0.37;;;13.20;74.60;;;;;;5072469;28;20447;-70
2021/12/17 08:42:06;;;;;;;0.30;0.30;;;13.80;73.20;;;;;;5073212;28;20272;-69
2021/12/17 08:44:32;;;;;;;0.37;0.37;;;14.60;69.90;;;;;;5073126;28;20674;-69
2021/12/17 08:46:58;;;;;;;0.30;0.30;;;15.00;66.90;;;;;;5073158;28;20482;-73
2021/12/17 08:49:24;;;;;;;0.30;0.30;;;15.30;64.70;;;;;;5072316;28;20157;-70
2021/12/17 08:51:50;;;;;;;0.40;0.40;;;15.40;62.80;;;;;;5071797;28;20446;-70
2021/12/17 08:54:16;;;;;;;0.30;0.30;;;15.20;62.50;;;;;;5072692;28;20407;-69
2021/12/17 08:56:46;;;;;;;0.30;0.30;;;15.20;62.50;;;;;;5072877;28;20533;-69
2021/12/17 08:59:14;;;;;;;0.30;0.30;;;15.40;61.30;;;;;;5071590;28;20912;-70
2021/12/17 09:01:40;;;;;;;0.30;0.30;;;16.20;59.70;;;;;;5072868;28;20457;-69
2021/12/17 09:04:06;;;;;;;0.30;0.30;;;16.70;57.90;;;;;;5073269;28;20414;-69
2021/12/17 09:06:32;;;;;;;0.37;0.37;;;17.30;56.50;;;;;;5072790;28;20924;-70
2021/12/17 09:08:57;;;;;;;0.30;0.30;;;17.70;55.00;;;;;;5075896;28;20453;-70
2021/12/17 09:11:27;;;;;;;0.30;0.30;;;18.50;52.70;;;;;;5076531;28;20169;-70
2021/12/17 09:13:56;;;;;;;0.30;0.30;;;19.00;50.80;;;;;;5076840;28;20156;-72
2021/12/17 09:16:22;;;;;;;0.40;0.40;;;19.10;49.80;;;;;;5076554;28;20471;-72
2021/12/17 09:18:54;;;;;;;0.30;0.30;;;19.40;48.30;;;;;;5075858;28;20769;-71
2021/12/17 09:21:19;;;;;;;0.30;0.30;;;19.40;47.70;;;;;;5075932;28;20257;-71
2021/12/17 09:23:46;;;;;;;0.30;0.30;;;19.30;46.90;;;;;;5076227;28;20407;-71
2021/12/17 09:26:14;;;;;;;0.30;0.30;;;17.80;48.90;;;;;;5076258;28;20175;-71
2021/12/17 09:28:39;;;;;;;0.30;0.30;;;17.70;49.40;;;;;;5075602;28;20413;-69
2021/12/17 09:31:11;;;;;;;0.40;0.40;;;17.40;49.80;;;;;;5075962;28;20418;-70
2021/12/17 09:33:37;;;;;;;0.40;0.40;;;17.80;50.10;;;;;;5076552;28;20160;-69
2021/12/17 09:36:04;;;;;;;0.30;0.30;;;18.00;49.30;;;;;;5075896;28;20404;-68
2021/12/17 09:38:31;;;;;;;0.30;0.30;;;18.50;48.90;;;;;;5075577;28;20451;-68
2021/12/17 09:40:57;;;;;;;0.30;0.30;;;18.50;48.30;;;;;;5074447;28;20456;-68
2021/12/17 09:43:23;;;;;;;0.30;0.30;;;18.70;48.50;;;;;;5075181;28;20517;-68
2021/12/17 09:45:49;;;;;;;0.30;0.30;;;19.30;47.70;;;;;;5073823;28;20400;-68
2021/12/17 09:48:15;;;;;;;0.40;0.40;;;20.00;46.60;;;;;;5074716;28;20410;-68
2021/12/17 09:50:40;;;;;;;0.30;0.30;;;19.90;46.30;;;;;;5074908;28;20197;-68
2021/12/17 09:53:06;;;;;;;0.30;0.30;;;20.30;45.70;;;;;;5074827;28;20192;-68
2021/12/17 09:55:32;;;;;;;0.30;0.30;;;20.20;45.40;;;;;;5074616;28;20169;-68
2021/12/17 09:57:58;;;;;;;0.30;0.30;;;20.20;45.50;;;;;;5073619;28;20836;-68
2021/12/17 10:00:26;;;;;;;0.30;0.30;;;19.70;45.50;;;;;;5075234;28;20248;-68
2021/12/17 10:02:54;;;;;;;0.30;0.30;;;18.80;46.60;;;;;;5074248;28;20200;-68
2021/12/17 10:05:34;;;;;;;0.30;0.30;;;18.90;47.70;;;;;;5075390;28;20404;-68
2021/12/17 10:08:16;;;;;;;0.67;0.67;;;19.00;47.50;;;;;;5075193;28;20400;-68
2021/12/17 10:10:59;;;;;;;0.30;0.30;;;18.90;47.20;;;;;;5075362;28;20392;-68
2021/12/17 10:13:31;;;;;;;0.40;0.40;;;18.70;47.50;;;;;;5075266;28;20996;-68
2021/12/17 10:16:08;;;;;;;0.30;0.30;;;18.70;47.50;;;;;;5075322;28;20439;-68
2021/12/17 10:18:35;;;;;;;0.30;0.30;;;18.90;47.30;;;;;;5074760;28;20395;-68
2021/12/17 10:21:09;;;;;;;0.30;0.30;;;19.50;46.80;;;;;;5075313;28;20452;-69
2021/12/17 10:23:36;;;;;;;0.30;0.30;;;19.80;45.90;;;;;;5072735;28;20410;-68
2021/12/17 10:26:02;;;;;;;0.30;0.30;;;19.60;45.70;;;;;;5072945;28;20396;-68
2021/12/17 10:28:30;;;;;;;0.30;0.30;;;19.70;45.90;;;;;;5072874;28;20427;-68
2021/12/17 10:30:56;;;;;;;0.30;0.30;;;19.20;46.00;;;;;;5074891;28;20451;-68
2021/12/17 10:33:27;;;;;;;0.30;0.30;;;19.00;47.00;;;;;;5073331;28;20920;-68
2021/12/17 10:35:56;;;;;;;0.30;0.30;;;18.70;47.30;;;;;;5074639;28;20423;-68
2021/12/17 10:38:25;;;;;;;0.30;0.30;;;18.60;47.70;;;;;;5074376;28;20432;-68
2021/12/17 10:41:03;;;;;;;0.30;0.30;;;18.20;47.70;;;;;;5074230;28;20454;-68
2021/12/17 10:43:37;;;;;;;0.30;0.30;;;16.90;49.30;;;;;;5074796;28;20434;-68
2021/12/17 10:46:21;;;;;;;0.40;0.40;;;15.80;51.20;;;;;;5075030;28;20403;-68
2021/12/17 10:48:52;;;;;;;0.30;0.30;;;15.10;52.50;;;;;;5074199;28;20400;-68
2021/12/17 10:51:32;;;;;;;0.30;0.30;;;14.20;54.20;;;;;;5074523;28;20399;-68
2021/12/17 10:54:19;;;;;;;0.40;0.40;;;13.70;55.40;;;;;;5074625;28;20387;-68
2021/12/17 10:56:54;;;;;;;0.40;0.40;;;13.50;56.70;;;;;;5074747;28;20411;-68
2021/12/17 10:59:31;;;;;;;0.30;0.30;;;13.50;56.70;;;;;;5073725;28;20421;-68
2021/12/17 11:02:06;;;;;;;0.30;0.30;;;12.50;57.60;;;;;;5074532;28;20815;-67
2021/12/17 11:04:34;;;;;;;0.30;0.30;;;11.30;60.30;;;;;;5074752;28;20771;-68
2021/12/17 11:07:10;;;;;;;0.30;0.30;;;10.30;63.70;;;;;;5074555;28;20504;-67
2021/12/17 11:10:01;;;;;;;0.30;0.30;;;9.70;68.50;;;;;;5073644;28;20177;-67
2021/12/17 11:12:45;;;;;;;0.30;0.30;;;9.10;71.20;;;;;;5074392;28;20235;-67
2021/12/17 11:15:28;;;;;;;0.30;0.30;;;8.90;73.40;;;;;;5074308;28;20222;-67
2021/12/17 11:17:56;;;;;;;0.40;0.40;;;8.90;74.70;;;;;;5074042;28;20195;-67
2021/12/17 11:20:24;;;;;;;0.30;0.30;;;9.00;75.40;;;;;;5073866;28;20204;-67
2021/12/17 11:22:52;;;;;;;0.30;0.30;;;9.00;75.70;;;;;;5073984;28;20206;-67
2021/12/17 11:25:19;;;;;;;0.30;0.30;;;9.10;75.80;;;;;;5072860;28;20169;-66
2021/12/17 11:27:46;;;;;;;0.30;0.30;;;9.10;76.30;;;;;;5074119;28;20261;-67
2021/12/17 11:30:18;;;;;;;0.30;0.30;;;9.30;76.30;;;;;;5071871;28;20169;-67
2021/12/17 11:32:45;;;;;;;0.30;0.30;;;9.70;74.90;;;;;;5071349;28;20197;-67
2021/12/17 11:35:13;;;;;;;0.30;0.30;;;9.60;73.90;;;;;;5072934;28;20291;-67
2021/12/17 11:37:42;;;;;;;0.40;0.40;;;9.30;74.00;;;;;;5073402;28;20177;-67
2021/12/17 11:40:17;;;;;;;0.30;0.30;;;9.00;75.40;;;;;;5073144;28;20561;-67
2021/12/17 11:43:01;;;;;;;0.30;0.30;;;8.70;75.70;;;;;;5073382;28;20192;-67
2021/12/17 11:45:29;;;;;;;0.30;0.30;;;8.70;76.20;;;;;;5073640;28;20168;-67
2021/12/17 11:48:22;;;;;;;0.30;0.30;;;8.30;74.80;;;;;;5073195;28;20165;-67
2021/12/17 11:51:05;;;;;;;0.40;0.40;;;8.40;74.30;;;;;;5073571;28;20251;-67
2021/12/17 11:53:32;;;;;;;0.30;0.30;;;8.40;76.20;;;;;;5073664;28;20216;-67
2021/12/17 11:56:01;;;;;;;0.40;0.40;;;8.30;76.30;;;;;;5073294;28;20183;-67
2021/12/17 11:58:48;;;;;;;0.30;0.30;;;8.30;75.60;;;;;;5072987;28;20173;-67
2021/12/17 12:01:34;;;;;;;0.40;0.40;;;7.80;76.80;;;;;;5073310;28;20218;-67
2021/12/17 12:04:32;;;;;;;0.30;0.30;;;7.40;78.30;;;;;;5071835;28;20184;-67
2021/12/17 12:07:14;;;;;;;0.40;0.40;;;7.30;77.70;;;;;;5072040;28;20199;-67
2021/12/17 12:09:59;;;;;;;0.40;0.40;;;7.50;79.20;;;;;;5072676;28;20174;-67
2021/12/17 12:12:34;;;;;;;0.40;0.40;;;7.50;77.10;;;;;;5073271;28;20210;-67
2021/12/17 12:15:19;;;;;;;0.30;0.30;;;7.30;73.70;;;;;;5073217;28;20191;-67
2021/12/17 12:17:57;;;;;;;0.40;0.40;;;7.20;70.90;;;;;;5073265;28;20501;-67
2021/12/17 12:20:44;;;;;;;0.40;0.40;;;7.50;70.90;;;;;;5073183;28;20221;-67
2021/12/17 12:23:31;;;;;;;0.38;0.38;;;7.90;68.80;;;;;;5073068;28;20184;-67
2021/12/17 12:29:05;;;;;;;0.40;0.40;;;7.90;67.70;;;;;;5072662;28;20180;-67
2021/12/17 12:31:33;;;;;;;0.30;0.30;;;7.90;64.40;;;;;;5073130;28;20218;-67
2021/12/17 12:34:05;;;;;;;0.40;0.40;;;8.10;65.70;;;;;;5072991;28;20175;-67
2021/12/17 12:37:01;;;;;;;0.40;0.40;;;8.10;67.30;;;;;;5073148;28;20172;-67
2021/12/17 12:39:26;;;;;;;0.30;0.30;;;8.10;59.80;;;;;;5072383;28;20180;-67
2021/12/17 12:41:55;;;;;;;0.30;0.30;;;8.10;63.20;;;;;;5073023;28;20663;-67
2021/12/17 12:44:41;;;;;;;0.30;0.30;;;8.30;62.80;;;;;;5076798;28;20247;-67
2021/12/17 12:47:11;;;;;;;0.40;0.40;;;8.30;56.50;;;;;;5076570;28;20176;-67
2021/12/17 12:50:03;;;;;;;0.40;0.40;;;8.40;55.20;;;;;;5076170;28;20227;-67
2021/12/17 12:52:29;;;;;;;0.30;0.30;;;8.70;55.50;;;;;;5076661;28;20184;-67
2021/12/17 12:55:16;;;;;;;0.30;0.30;;;8.70;57.00;;;;;;5076759;28;20656;-67
2021/12/17 12:57:46;;;;;;;0.30;0.30;;;8.70;55.30;;;;;;5076495;28;20192;-67
2021/12/17 13:00:34;;;;;;;0.30;0.30;;;8.80;53.80;;;;;;5075844;28;20204;-67
2021/12/17 13:03:12;;;;;;;0.40;0.40;;;8.90;53.90;;;;;;5076220;28;20187;-67
2021/12/17 13:05:38;;;;;;;0.30;0.30;;;9.00;55.30;;;;;;5076648;28;20503;-67
2021/12/17 13:08:07;;;;;;;0.35;0.35;;;8.90;54.40;;;;;;5075784;28;20175;-67
2021/12/17 13:10:36;;;;;;;0.30;0.30;;;8.90;54.60;;;;;;5076290;28;20200;-67
2021/12/17 13:13:14;;;;;;;0.40;0.40;;;8.80;54.90;;;;;;5076146;28;20195;-67
2021/12/17 13:15:49;;;;;;;0.30;0.30;;;8.90;55.30;;;;;;5076406;28;20668;-68
2021/12/17 13:21:59;;;;;;;0.30;0.30;;;8.80;55.30;;;;;;5076416;28;20206;-68
2021/12/17 13:24:08;;;;;;;0.40;0.40;;;8.70;56.20;;;;;;5078004;28;20696;-68
2021/12/17 13:26:35;;;;;;;0.30;0.30;;;8.70;56.00;;;;;;5076131;28;20173;-68
2021/12/17 13:29:15;;;;;;;0.40;0.40;;;8.60;57.00;;;;;;5075440;28;20173;-68
2021/12/17 13:31:50;;;;;;;0.40;0.40;;;8.30;56.90;;;;;;5075974;28;20203;-68
2021/12/17 13:34:21;;;;;;;0.30;0.30;;;8.20;57.70;;;;;;5076105;28;20298;-68
2021/12/17 13:37:11;;;;;;;0.30;0.30;;;8.20;58.20;;;;;;5075869;28;20178;-68
2021/12/17 13:39:42;;;;;;;0.30;0.30;;;8.10;59.30;;;;;;5074733;28;20226;-68
2021/12/17 13:42:10;;;;;;;0.40;0.40;;;8.00;60.70;;;;;;5074316;28;20207;-68
2021/12/17 13:44:43;;;;;;;0.30;0.30;;;7.90;60.80;;;;;;5075688;28;20179;-68
2021/12/17 13:47:23;;;;;;;0.30;0.30;;;7.90;61.80;;;;;;5075777;28;20179;-68
2021/12/17 13:50:11;;;;;;;0.30;0.30;;;7.90;63.40;;;;;;5075060;28;20175;-67
2021/12/17 13:52:59;;;;;;;0.40;0.40;;;7.60;60.90;;;;;;5075395;28;20273;-69
2021/12/17 13:55:32;;;;;;;0.40;0.40;;;7.50;62.00;;;;;;5074730;28;20191;-69
2021/12/17 13:58:00;;;;;;;0.30;0.30;;;7.70;64.00;;;;;;5075669;28;20172;-68
2021/12/17 14:00:31;;;;;;;0.30;0.30;;;7.60;59.40;;;;;;5075311;28;20209;-68
2021/12/17 14:02:58;;;;;;;0.40;0.40;;;7.50;62.20;;;;;;5075508;28;20210;-68
2021/12/17 14:05:29;;;;;;;0.38;0.38;;;7.50;61.80;;;;;;5075557;28;20164;-68
2021/12/17 14:08:00;;;;;;;0.40;0.40;;;7.50;62.90;;;;;;5073962;28;20324;-69
2021/12/17 14:10:30;;;;;;;0.30;0.30;;;7.50;61.80;;;;;;5075830;28;20168;-69
2021/12/17 14:12:55;;;;;;;0.40;0.40;;;7.40;63.30;;;;;;5073598;28;20227;-69
2021/12/17 14:15:35;;;;;;;0.30;0.30;;;7.40;64.60;;;;;;5074103;28;20205;-69
2021/12/17 14:18:05;;;;;;;0.40;0.40;;;7.30;64.70;;;;;;5074880;28;20635;-69
2021/12/17 14:20:47;;;;;;;0.30;0.30;;;7.10;66.10;;;;;;5075163;28;20614;-69
2021/12/17 14:23:26;;;;;;;0.40;0.40;;;7.00;65.80;;;;;;5075729;28;20182;-69
2021/12/17 14:26:04;;;;;;;0.40;0.40;;;6.80;62.90;;;;;;5075253;28;20253;-69
2021/12/17 14:28:32;;;;;;;0.35;0.35;;;6.60;61.90;;;;;;5074663;28;20170;-68
2021/12/17 14:31:02;;;;;;;0.40;0.40;;;6.70;62.20;;;;;;5075348;28;20179;-69
2021/12/17 14:33:52;;;;;;;0.40;0.40;;;6.80;58.80;;;;;;5075282;28;20539;-69
2021/12/17 14:36:38;;;;;;;0.40;0.40;;;7.00;58.90;;;;;;5074797;28;20180;-69
2021/12/17 14:39:20;;;;;;;0.40;0.40;;;7.00;63.40;;;;;;5074281;28;20180;-69
2021/12/17 14:41:58;;;;;;;0.40;0.40;;;6.80;64.30;;;;;;5074592;28;20228;-67
2021/12/17 14:47:01;;;;;;;0.40;0.40;;;6.70;57.20;;;;;;5074487;28;20542;-67
2021/12/17 15:05:19;;;;;;;0.40;0.40;;;7.40;57.20;;;;;;5073581;28;20206;-68
2021/12/17 15:07:46;;;;;;;0.30;0.30;;;7.50;57.70;;;;;;5074278;28;20652;-67
2021/12/17 15:10:13;;;;;;;0.40;0.40;;;7.40;57.50;;;;;;5073874;28;20183;-68
2021/12/17 15:12:42;;;;;;;0.40;0.40;;;7.60;58.90;;;;;;5073774;28;20671;-68
2021/12/17 15:15:15;;;;;;;0.30;0.30;;;7.40;63.60;;;;;;5075500;28;20245;-69
2021/12/17 15:17:43;;;;;;;0.30;0.30;;;7.40;66.70;;;;;;5072910;28;20170;-69
2021/12/17 15:20:11;;;;;;;1.73;1.63;;;7.20;68.20;;;;;;5073337;28;20271;-68
2021/12/17 15:22:37;;;;;;;0.40;0.40;;;7.00;68.50;;;;;;5074124;28;20185;-68
2021/12/17 15:25:05;;;;;;;0.40;0.40;;;6.80;70.40;;;;;;5073877;28;20180;-69
2021/12/17 15:27:33;;;;;;;0.30;0.30;;;6.50;71.30;;;;;;5074166;28;20674;-69
2021/12/17 15:30:10;;;;;;;0.40;0.40;;;6.30;72.90;;;;;;5073127;28;20178;-70
2021/12/17 15:32:35;;;;;;;0.40;0.40;;;6.10;74.90;;;;;;5073496;28;20254;-70
2021/12/17 15:35:01;;;;;;;0.40;0.40;;;5.90;77.70;;;;;;5073935;28;20178;-70
2021/12/17 15:37:27;;;;;;;0.40;0.40;;;5.80;78.00;;;;;;5073848;28;20178;-69
2021/12/17 15:39:52;;;;;;;0.40;0.40;;;5.60;79.50;;;;;;5073357;28;20275;-68
2021/12/17 15:42:18;;;;;;;0.40;0.40;;;5.50;80.00;;;;;;5073973;28;20677;-69
2021/12/17 15:44:44;;;;;;;0.40;0.40;;;5.40;81.40;;;;;;5072428;28;20223;-69
2021/12/17 15:47:10;;;;;;;0.60;0.60;;;5.20;83.50;;;;;;5073444;28;20169;-69
2021/12/17 15:49:37;;;;;;;0.40;0.40;;;5.10;85.90;;;;;;5073160;28;20166;-74
2021/12/17 15:52:05;;;;;;;0.40;0.40;;;5.00;87.70;;;;;;5072116;28;20185;-69
2021/12/17 15:54:31;;;;;;;0.30;0.30;;;4.90;89.20;;;;;;5073021;28;20199;-74
2021/12/17 15:56:57;;;;;;;0.40;0.40;;;4.80;90.60;;;;;;5070995;28;20635;-68
2021/12/17 15:59:23;;;;;;;0.40;0.40;;;4.70;91.50;;;;;;5073046;28;20192;-68
2021/12/17 16:01:48;;;;;;;0.40;0.40;;;4.60;92.00;;;;;;5072921;28;20564;-68
2021/12/17 16:04:14;;;;;;;0.37;0.37;;;4.60;92.50;;;;;;5072689;28;20165;-68
2021/12/17 16:06:40;;;;;;;0.50;0.50;;;4.50;92.70;;;;;;5073733;28;20169;-68
2021/12/17 16:09:14;;;;;;;0.40;0.40;;;4.40;92.90;;;;;;5073319;28;20169;-68
2021/12/17 16:12:04;;;;;;;0.40;0.40;;;4.20;93.00;;;;;;5073096;28;20431;-68
2021/12/17 16:22:23;;;;;;;0.32;0.32;;;3.70;93.80;;;;;;5076418;28;20214;-69
2021/12/17 16:24:48;;;;;;;0.50;0.50;;;3.70;94.20;;;;;;5077358;28;20168;-68